createdAt,value
2022-10-20T00:01:09.178Z,21.25
2022-10-20T00:03:37.255Z,21.30
2022-10-20T00:06:11.065Z,22.90
2022-10-20T00:08:38.806Z,26.38
2022-10-20T00:11:06.603Z,21.48
2022-10-20T00:13:34.369Z,22.48
2022-10-20T00:16:02.010Z,26.40
2022-10-20T00:18:29.806Z,22.40
2022-10-20T00:20:57.370Z,21.38
2022-10-20T00:23:26.744Z,24.25
2022-10-20T00:26:02.838Z,26.80
2022-10-20T00:28:30.566Z,26.05
2022-10-20T00:30:58.234Z,26.23
2022-10-20T00:33:27.275Z,27.10
2022-10-20T00:36:20.386Z,28.20
2022-10-20T00:38:49.658Z,27.60
2022-10-20T00:41:19.724Z,29.30
2022-10-20T00:43:51.107Z,28.52
2022-10-20T00:46:21.328Z,29.15
2022-10-20T00:48:52.491Z,25.55
2022-10-20T00:51:23.266Z,28.55
2022-10-20T00:53:58.204Z,27.48
2022-10-20T00:56:25.769Z,26.35
2022-10-20T00:58:53.375Z,25.43
2022-10-20T01:01:21.001Z,25.27
2022-10-20T01:03:51.235Z,24.80
2022-10-20T01:06:21.089Z,25.23
2022-10-20T01:08:49.403Z,28.17
2022-10-20T01:11:25.318Z,23.73
2022-10-20T01:14:01.977Z,27.30
2022-10-20T01:16:40.406Z,23.70
2022-10-20T01:19:32.689Z,25.05
2022-10-20T01:22:12.276Z,27.30
2022-10-20T01:24:53.301Z,24.47
2022-10-20T01:27:33.174Z,24.17
2022-10-20T01:30:08.659Z,23.57
2022-10-20T01:32:51.033Z,24.67
2022-10-20T01:35:52.207Z,23.15
2022-10-20T01:38:27.444Z,23.20
2022-10-20T01:41:02.404Z,24.25
2022-10-20T01:43:36.451Z,25.48
2022-10-20T01:46:06.683Z,23.75
2022-10-20T01:48:37.931Z,25.77
2022-10-20T01:51:06.069Z,24.02
2022-10-20T01:53:34.198Z,23.90
2022-10-20T01:56:03.046Z,24.73
2022-10-20T01:58:56.427Z,25.42
2022-10-20T02:01:36.235Z,21.98
2022-10-20T02:04:05.959Z,25.00
2022-10-20T02:06:43.213Z,24.27
2022-10-20T02:09:16.570Z,24.45
2022-10-20T02:11:53.121Z,26.05
2022-10-20T02:14:24.250Z,24.88
2022-10-20T02:16:56.462Z,25.40
2022-10-20T02:19:26.856Z,26.90
2022-10-20T02:21:57.280Z,26.50
2022-10-20T02:24:28.857Z,24.85
2022-10-20T02:27:00.106Z,26.27
2022-10-20T02:29:34.647Z,25.77
2022-10-20T02:32:02.377Z,24.77
2022-10-20T02:34:29.944Z,24.02
2022-10-20T02:36:59.085Z,24.52
2022-10-20T02:39:27.625Z,25.13
2022-10-20T02:41:55.565Z,24.42
2022-10-20T02:44:23.919Z,24.33
2022-10-20T02:46:52.822Z,24.50
2022-10-20T02:49:21.467Z,22.95
2022-10-20T02:51:49.071Z,24.73
2022-10-20T02:54:16.637Z,27.50
2022-10-20T02:56:44.243Z,25.25
2022-10-20T02:59:14.376Z,27.80
2022-10-20T03:01:42.069Z,22.43
2022-10-20T03:04:11.217Z,25.13
2022-10-20T03:06:38.818Z,23.05
2022-10-20T03:09:06.657Z,21.55
2022-10-20T03:11:34.228Z,22.17
2022-10-20T03:14:01.852Z,23.55
2022-10-20T03:16:29.489Z,25.83
2022-10-20T03:19:00.024Z,23.60
2022-10-20T03:21:32.417Z,19.95
2022-10-20T03:23:59.968Z,25.95
2022-10-20T03:26:27.656Z,24.80
2022-10-20T03:28:55.224Z,23.67
2022-10-20T03:31:22.866Z,23.02
2022-10-20T03:33:50.450Z,21.60
2022-10-20T03:36:18.015Z,23.75
2022-10-20T03:38:46.961Z,21.45
2022-10-20T03:41:14.711Z,22.17
2022-10-20T03:43:42.598Z,22.65
2022-10-20T03:46:12.010Z,21.30
2022-10-20T03:48:42.366Z,20.70
2022-10-20T03:51:10.105Z,20.60
2022-10-20T03:53:37.634Z,25.60
2022-10-20T03:56:11.405Z,20.57
2022-10-20T03:58:39.001Z,24.02
2022-10-20T04:01:09.146Z,27.20
2022-10-20T04:03:36.826Z,23.80
2022-10-20T04:06:04.499Z,25.05
2022-10-20T04:08:32.100Z,25.55
2022-10-20T04:11:00.826Z,27.27
2022-10-20T04:13:29.898Z,25.35
2022-10-20T04:15:57.453Z,23.90
2022-10-20T04:18:25.278Z,23.98
2022-10-20T04:20:52.814Z,21.30
2022-10-20T04:23:20.348Z,22.80
2022-10-20T04:25:48.631Z,22.40
2022-10-20T04:28:17.532Z,24.23
2022-10-20T04:30:47.627Z,22.35
2022-10-20T04:33:15.339Z,25.93
2022-10-20T04:35:43.425Z,20.08
2022-10-20T04:38:11.057Z,21.95
2022-10-20T04:40:38.611Z,24.73
2022-10-20T04:43:06.181Z,22.30
2022-10-20T04:45:33.938Z,21.80
2022-10-20T04:48:05.257Z,20.15
2022-10-20T04:50:33.115Z,22.40
2022-10-20T04:53:00.986Z,25.98
2022-10-20T04:55:28.781Z,21.75
2022-10-20T04:57:56.349Z,20.02
2022-10-20T05:00:23.918Z,20.65
2022-10-20T05:02:51.752Z,24.92
2022-10-20T05:05:20.678Z,20.45
2022-10-20T05:07:48.245Z,20.53
2022-10-20T05:10:15.949Z,25.58
2022-10-20T05:12:43.509Z,19.88
2022-10-20T05:15:11.238Z,21.67
2022-10-20T05:17:38.822Z,23.77
2022-10-20T05:20:07.506Z,20.33
2022-10-20T05:22:36.526Z,23.40
2022-10-20T05:27:52.031Z,23.00
2022-10-20T05:30:19.909Z,21.70
2022-10-20T05:32:48.342Z,23.40
2022-10-20T05:35:16.025Z,22.73
2022-10-20T05:37:44.952Z,23.08
2022-10-20T05:40:13.405Z,28.88
2022-10-20T05:42:40.966Z,25.42
2022-10-20T05:45:10.235Z,26.35
2022-10-20T05:47:37.901Z,28.92
2022-10-20T05:50:06.597Z,24.92
2022-10-20T05:52:36.617Z,23.52
2022-10-20T05:55:06.673Z,25.63
2022-10-20T05:57:34.214Z,26.60
2022-10-20T06:00:01.860Z,25.92
2022-10-20T06:02:29.687Z,26.05
2022-10-20T06:04:57.273Z,26.27
2022-10-20T06:07:24.801Z,24.77
2022-10-20T06:09:52.404Z,24.87
2022-10-20T06:12:21.409Z,26.02
2022-10-20T06:14:49.020Z,26.38
2022-10-20T06:17:16.783Z,27.33
2022-10-20T06:19:44.567Z,25.30
2022-10-20T06:22:13.746Z,24.73
2022-10-20T06:24:41.322Z,26.23
2022-10-20T06:27:08.968Z,26.35
2022-10-20T06:29:37.906Z,25.40
2022-10-20T06:32:06.009Z,25.48
2022-10-20T06:34:33.575Z,25.13
2022-10-20T06:37:01.110Z,26.15
2022-10-20T06:39:28.643Z,22.67
2022-10-20T06:41:56.435Z,21.73
2022-10-20T06:44:25.455Z,20.92
2022-10-20T06:46:54.524Z,19.58
2022-10-20T06:49:23.031Z,21.73
2022-10-20T06:51:50.826Z,23.20
2022-10-20T06:54:19.013Z,23.40
2022-10-20T06:56:46.603Z,21.27
2022-10-20T06:59:14.418Z,21.73
2022-10-20T07:01:43.215Z,20.52
2022-10-20T07:04:15.536Z,20.92
2022-10-20T07:06:45.148Z,19.30
2022-10-20T07:09:14.850Z,20.02
2022-10-20T07:11:43.190Z,20.20
2022-10-20T07:14:12.659Z,20.02
2022-10-20T07:16:40.667Z,22.02
2022-10-20T07:19:08.302Z,21.83
2022-10-20T07:21:40.161Z,20.60
2022-10-20T07:24:10.206Z,19.70
2022-10-20T07:26:40.721Z,21.15
2022-10-20T07:29:09.217Z,23.75
2022-10-20T07:31:39.913Z,21.98
2022-10-20T07:34:26.825Z,21.67
2022-10-20T07:36:57.926Z,23.23
2022-10-20T07:39:25.980Z,23.20
2022-10-20T07:41:53.967Z,23.23
2022-10-20T07:44:21.541Z,21.20
2022-10-20T07:46:49.339Z,24.67
2022-10-20T07:52:06.269Z,19.92
2022-10-20T07:54:33.976Z,24.58
2022-10-20T07:57:01.579Z,20.88
2022-10-20T07:59:29.929Z,19.97
2022-10-20T08:01:59.926Z,22.30
2022-10-20T08:04:27.946Z,26.38
2022-10-20T08:06:55.576Z,21.47
2022-10-20T08:09:25.905Z,21.65
2022-10-20T08:11:55.572Z,23.60
2022-10-20T08:14:26.701Z,21.60
2022-10-20T08:16:56.455Z,23.60
2022-10-20T08:21:02.188Z,21.37
2022-10-20T08:22:15.984Z,21.38
2022-10-20T08:24:44.934Z,23.55
2022-10-20T08:27:12.604Z,19.83
2022-10-20T08:29:40.376Z,23.13
2022-10-20T08:32:08.346Z,23.75
2022-10-20T08:34:35.911Z,19.90
2022-10-20T08:37:03.442Z,21.48
2022-10-20T08:39:31.007Z,21.15
2022-10-20T08:42:09.644Z,18.40
2022-10-20T08:44:40.780Z,20.52
2022-10-20T08:47:18.506Z,24.85
2022-10-20T08:49:47.642Z,21.17
2022-10-20T08:52:16.191Z,19.15
2022-10-20T08:54:44.039Z,20.35
2022-10-20T08:57:27.348Z,18.67
2022-10-20T08:59:57.500Z,20.50
2022-10-20T09:02:25.100Z,21.25
2022-10-20T09:04:56.305Z,18.83
2022-10-20T09:07:29.206Z,22.77
2022-10-20T09:10:05.660Z,21.35
2022-10-20T09:12:35.389Z,20.90
2022-10-20T09:15:04.029Z,21.55
2022-10-20T09:17:31.986Z,19.57
2022-10-20T09:20:01.897Z,25.88
2022-10-20T09:22:34.906Z,20.88
2022-10-20T09:25:05.305Z,21.33
2022-10-20T09:27:36.724Z,20.92
2022-10-20T09:30:17.265Z,20.52
2022-10-20T09:32:46.882Z,19.52
2022-10-20T09:35:29.557Z,21.02
2022-10-20T09:38:04.691Z,20.30
2022-10-20T09:40:32.968Z,20.50
2022-10-20T09:43:08.683Z,22.38
2022-10-20T09:45:40.212Z,21.67
2022-10-20T09:48:22.358Z,19.25
2022-10-20T09:50:55.085Z,22.10
2022-10-20T09:53:27.789Z,20.88
2022-10-20T09:55:56.420Z,19.58
2022-10-20T09:58:29.539Z,24.52
2022-10-20T10:01:00.571Z,20.43
2022-10-20T10:03:29.183Z,21.40
2022-10-20T10:05:58.393Z,19.65
2022-10-20T10:08:28.107Z,20.73
2022-10-20T10:11:00.466Z,18.13
2022-10-20T10:13:33.126Z,22.30
2022-10-20T10:16:03.757Z,20.13
2022-10-20T10:18:31.729Z,21.02
2022-10-20T10:21:02.601Z,20.40
2022-10-20T10:23:31.584Z,19.33
2022-10-20T10:26:02.029Z,18.88
2022-10-20T10:28:41.921Z,20.50
2022-10-20T10:31:20.389Z,20.67
2022-10-20T10:33:49.396Z,19.77
2022-10-20T10:36:26.662Z,20.80
2022-10-20T10:38:56.563Z,22.13
2022-10-20T10:41:36.917Z,21.65
2022-10-20T10:44:13.518Z,23.77
2022-10-20T10:46:44.821Z,22.13
2022-10-20T10:49:47.164Z,20.67
2022-10-20T10:52:30.870Z,23.63
2022-10-20T10:55:30.622Z,23.17
2022-10-20T10:58:12.000Z,22.17
2022-10-20T11:00:53.061Z,21.00
2022-10-20T11:03:40.457Z,24.73
2022-10-20T11:06:18.843Z,21.80
2022-10-20T11:08:59.013Z,21.02
2022-10-20T11:11:41.282Z,21.00
2022-10-20T11:16:57.232Z,22.13
2022-10-20T11:19:48.003Z,22.33
2022-10-20T11:22:29.410Z,22.40
2022-10-20T11:25:08.488Z,20.05
2022-10-20T11:27:39.083Z,18.30
2022-10-20T11:30:16.836Z,19.13
2022-10-20T11:32:50.573Z,18.88
2022-10-20T11:35:30.200Z,19.20
2022-10-20T11:38:12.418Z,21.90
2022-10-20T11:40:41.682Z,20.58
2022-10-20T11:43:17.630Z,18.80
2022-10-20T11:45:51.721Z,21.23
2022-10-20T11:48:27.102Z,18.13
2022-10-20T11:51:22.151Z,22.37
2022-10-20T11:54:04.215Z,18.02
2022-10-20T11:56:57.330Z,18.45
2022-10-20T11:59:41.953Z,18.50
2022-10-20T12:02:32.769Z,15.27
2022-10-20T12:05:18.400Z,19.77
2022-10-20T12:08:28.373Z,21.33
2022-10-20T12:11:04.441Z,18.10
2022-10-20T12:13:41.855Z,18.80
2022-10-20T12:16:09.543Z,20.10
2022-10-20T12:18:37.814Z,16.55
2022-10-20T12:21:08.417Z,16.93
2022-10-20T12:24:02.553Z,16.10
2022-10-20T12:27:05.115Z,16.33
2022-10-20T12:29:53.831Z,19.35
2022-10-20T12:32:55.986Z,16.92
2022-10-20T12:36:05.104Z,17.40
2022-10-20T12:38:34.067Z,15.55
2022-10-20T12:41:03.033Z,18.77
2022-10-20T12:43:52.966Z,17.02
2022-10-20T12:46:23.908Z,16.67
2022-10-20T12:48:57.413Z,18.38
2022-10-20T12:51:33.876Z,17.08
2022-10-20T12:54:08.475Z,14.57
2022-10-20T12:56:40.467Z,15.13
2022-10-20T12:59:21.322Z,20.55
2022-10-20T13:02:41.661Z,18.70
2022-10-20T13:05:51.502Z,17.27
2022-10-20T13:08:28.704Z,15.00
2022-10-20T13:11:18.653Z,16.73
2022-10-20T13:14:23.575Z,17.13
2022-10-20T13:17:00.998Z,15.18
2022-10-20T13:19:35.971Z,15.70
2022-10-20T13:22:33.301Z,14.90
2022-10-20T13:25:03.633Z,15.75
2022-10-20T13:27:31.238Z,12.97
2022-10-20T13:30:00.238Z,13.00
2022-10-20T13:32:34.728Z,13.45
2022-10-20T13:35:10.005Z,14.90
2022-10-20T13:37:56.336Z,18.65
2022-10-20T13:40:36.763Z,17.05
2022-10-20T13:43:20.172Z,14.15
2022-10-20T13:46:03.925Z,13.93
2022-10-20T13:48:46.209Z,15.33
2022-10-20T13:51:20.477Z,13.43
2022-10-20T13:53:52.247Z,13.95
2022-10-20T13:56:25.524Z,16.27
2022-10-20T13:59:06.129Z,14.27
2022-10-20T14:01:37.275Z,14.50
2022-10-20T14:04:24.677Z,15.85
2022-10-20T14:06:52.438Z,35.95
2022-10-20T14:09:22.708Z,22.52
2022-10-20T14:11:53.142Z,17.30
2022-10-20T14:14:24.275Z,21.20
2022-10-20T14:16:57.345Z,17.80
2022-10-20T14:19:28.003Z,18.70
2022-10-20T14:21:57.452Z,55.40
2022-10-20T14:24:31.050Z,41.03
2022-10-20T14:27:00.658Z,27.52
2022-10-20T14:29:31.064Z,27.60
2022-10-20T14:32:00.748Z,42.20
2022-10-20T14:34:31.547Z,21.02
2022-10-20T14:36:59.821Z,19.15
2022-10-20T14:39:35.467Z,23.73
2022-10-20T14:42:05.324Z,32.75
2022-10-20T14:44:33.586Z,33.55
2022-10-20T14:47:05.997Z,65.40
2022-10-20T14:49:37.193Z,19.48
2022-10-20T14:52:09.114Z,19.75
2022-10-20T14:54:40.349Z,30.92
2022-10-20T14:57:39.663Z,25.38
2022-10-20T15:00:31.970Z,33.05
2022-10-20T15:03:06.730Z,23.92
2022-10-20T15:05:40.751Z,117.25
2022-10-20T15:08:11.967Z,100.15
2022-10-20T15:10:41.840Z,49.13
2022-10-20T15:13:25.011Z,39.95
2022-10-20T15:15:56.093Z,30.15
2022-10-20T15:18:25.653Z,50.73
2022-10-20T15:20:54.917Z,25.15
2022-10-20T15:23:24.300Z,25.58
2022-10-20T15:25:54.344Z,38.83
2022-10-20T15:28:30.967Z,46.80
2022-10-20T15:30:59.620Z,19.85
2022-10-20T15:33:28.752Z,22.45
2022-10-20T15:35:56.931Z,64.30
2022-10-20T15:38:25.443Z,24.60
2022-10-20T15:40:53.163Z,62.45
2022-10-20T15:43:20.958Z,30.23
2022-10-20T15:45:53.274Z,44.10
2022-10-20T15:48:23.941Z,24.00
2022-10-20T15:50:53.073Z,21.33
2022-10-20T15:53:21.001Z,18.73
2022-10-20T15:55:48.969Z,19.13
2022-10-20T15:58:16.626Z,24.38
2022-10-20T16:00:44.673Z,24.17
2022-10-20T16:03:16.624Z,27.23
2022-10-20T16:05:44.642Z,23.70
2022-10-20T16:10:43.703Z,25.20
2022-10-20T16:13:12.240Z,27.08
2022-10-20T16:15:41.151Z,25.92
2022-10-20T16:18:10.005Z,24.80
2022-10-20T16:20:38.101Z,32.83
2022-10-20T16:23:05.774Z,33.13
2022-10-20T16:25:35.048Z,38.28
2022-10-20T16:28:02.660Z,29.10
2022-10-20T16:30:30.454Z,29.67
2022-10-20T16:32:58.174Z,19.57
2022-10-20T16:35:25.844Z,19.50
2022-10-20T16:37:53.555Z,22.53
2022-10-20T16:40:21.262Z,25.77
2022-10-20T16:42:50.398Z,26.80
2022-10-20T16:45:18.808Z,21.65
2022-10-20T16:47:46.479Z,25.70
2022-10-20T16:50:14.100Z,25.47
2022-10-20T16:52:41.702Z,22.35
2022-10-20T16:55:10.428Z,21.73
2022-10-20T16:57:39.788Z,21.95
2022-10-20T17:00:10.154Z,23.20
2022-10-20T17:02:38.374Z,27.52
2022-10-20T17:05:09.224Z,26.77
2022-10-20T17:07:37.906Z,40.40
2022-10-20T17:10:06.914Z,41.15
2022-10-20T17:12:34.614Z,42.30
2022-10-20T17:15:02.506Z,27.63
2022-10-20T17:17:31.465Z,24.30
2022-10-20T17:19:59.158Z,23.20
2022-10-20T17:22:29.571Z,19.75
2022-10-20T17:24:58.532Z,21.35
2022-10-20T17:27:26.299Z,23.23
2022-10-20T17:29:55.203Z,21.58
2022-10-20T17:32:26.332Z,20.25
2022-10-20T17:34:55.341Z,35.67
2022-10-20T17:37:22.984Z,34.35
2022-10-20T17:39:50.638Z,29.77
2022-10-20T17:42:18.464Z,22.08
2022-10-20T17:44:46.221Z,20.67
2022-10-20T17:47:13.965Z,22.42
2022-10-20T17:49:41.734Z,23.15
2022-10-20T17:52:10.750Z,22.00
2022-10-20T17:54:38.415Z,24.67
2022-10-20T17:57:06.118Z,25.45
2022-10-20T17:59:38.330Z,38.00
2022-10-20T18:02:15.245Z,29.48
2022-10-20T18:04:43.208Z,35.78
2022-10-20T18:07:12.288Z,27.00
2022-10-20T18:09:40.316Z,23.25
2022-10-20T18:12:08.289Z,23.52
2022-10-20T18:14:36.366Z,28.15
2022-10-20T18:17:04.087Z,24.70
2022-10-20T18:19:31.810Z,22.50
2022-10-20T18:21:59.512Z,28.27
2022-10-20T18:24:28.549Z,28.52
2022-10-20T18:27:27.337Z,26.60
2022-10-20T19:29:15.096Z,21.93
2022-10-20T19:31:50.148Z,23.27
2022-10-20T19:34:25.773Z,24.23
2022-10-20T19:37:12.707Z,24.77
2022-10-20T19:39:44.381Z,25.27
2022-10-20T19:42:58.169Z,23.52
2022-10-20T19:45:43.551Z,23.10
2022-10-20T19:48:19.583Z,25.92
2022-10-20T19:50:54.051Z,25.75
2022-10-20T19:53:23.314Z,24.75
2022-10-20T19:55:55.935Z,25.00
2022-10-20T19:58:31.281Z,28.02
2022-10-20T20:01:02.275Z,26.93
2022-10-20T20:03:34.441Z,26.87
2022-10-20T20:06:06.809Z,26.57
2022-10-20T20:08:35.469Z,25.85
2022-10-20T20:11:04.820Z,23.10
2022-10-20T20:13:33.084Z,23.23
2022-10-20T20:16:07.359Z,25.48
2022-10-20T20:18:35.702Z,23.13
2022-10-20T20:21:06.256Z,20.88
2022-10-20T20:23:47.675Z,21.50
2022-10-20T20:26:23.866Z,21.75
2022-10-20T20:28:53.269Z,22.25
2022-10-20T20:31:23.294Z,21.58
2022-10-20T20:33:52.018Z,19.38
2022-10-20T20:36:19.829Z,18.95
2022-10-20T20:38:47.742Z,21.83
2022-10-20T20:41:18.417Z,20.38
2022-10-20T20:43:46.571Z,21.85
2022-10-20T20:46:17.355Z,20.30
2022-10-20T20:48:46.678Z,19.48
2022-10-20T20:51:15.402Z,18.48
2022-10-20T20:53:43.158Z,14.05
2022-10-20T20:56:13.499Z,17.02
2022-10-20T20:58:41.980Z,19.00
2022-10-20T21:01:13.481Z,17.40
2022-10-20T21:03:42.473Z,19.77
2022-10-20T21:06:13.697Z,19.55
2022-10-20T21:08:43.955Z,19.42
2022-10-20T21:11:14.931Z,18.90
2022-10-20T21:13:44.219Z,21.67
2022-10-20T21:16:13.655Z,19.03
2022-10-20T21:18:43.050Z,18.50
2022-10-20T21:21:13.843Z,17.25
2022-10-20T21:23:41.875Z,15.15
2022-10-20T21:26:11.268Z,11.20
2022-10-20T21:28:39.427Z,6.72
2022-10-20T21:31:07.944Z,5.82
2022-10-20T21:33:36.258Z,7.07
2022-10-20T21:36:05.437Z,7.50
2022-10-20T21:38:36.465Z,8.20
2022-10-20T21:41:04.921Z,9.05
2022-10-20T21:43:34.824Z,10.52
2022-10-20T21:46:13.698Z,10.98
2022-10-20T21:48:41.913Z,10.73
2022-10-20T21:51:12.005Z,10.25
2022-10-20T21:53:41.239Z,11.27
2022-10-20T21:56:09.548Z,10.05
2022-10-20T21:58:37.825Z,11.48
2022-10-20T22:01:12.896Z,11.57
2022-10-20T22:03:41.383Z,13.70
2022-10-20T22:06:10.953Z,9.88
2022-10-20T22:08:39.676Z,9.32
2022-10-20T22:11:11.647Z,8.55
2022-10-20T22:13:39.834Z,11.02
2022-10-20T22:16:08.777Z,8.85
2022-10-20T22:18:36.556Z,11.25
2022-10-20T22:21:04.795Z,11.25
2022-10-20T22:23:34.004Z,12.88
2022-10-20T22:26:02.480Z,12.82
2022-10-20T22:28:32.010Z,13.23
2022-10-20T22:31:02.571Z,12.87
2022-10-20T22:33:30.431Z,12.07
2022-10-20T22:35:58.147Z,15.98
2022-10-20T22:38:25.940Z,13.85
2022-10-20T22:40:53.592Z,11.48
2022-10-20T22:43:21.440Z,13.20
2022-10-20T22:45:50.411Z,9.80
2022-10-20T22:48:18.100Z,10.57
2022-10-20T22:50:45.889Z,11.70
2022-10-20T22:53:14.037Z,10.27
2022-10-20T22:55:41.967Z,9.65
2022-10-20T22:58:10.262Z,13.00
2022-10-20T23:00:40.098Z,11.77
2022-10-20T23:03:09.225Z,14.10
2022-10-20T23:05:37.283Z,12.47
2022-10-20T23:08:05.342Z,11.03
2022-10-20T23:10:33.488Z,12.00
2022-10-20T23:13:01.170Z,11.20
2022-10-20T23:15:28.807Z,14.15
2022-10-20T23:17:56.474Z,13.07
2022-10-20T23:20:25.589Z,10.75
2022-10-20T23:22:53.247Z,9.57
2022-10-20T23:25:20.848Z,9.63
2022-10-20T23:27:48.477Z,12.23
2022-10-20T23:30:16.447Z,10.18
2022-10-20T23:32:44.158Z,9.70
2022-10-20T23:35:11.893Z,8.50
2022-10-20T23:37:41.003Z,11.38
2022-10-20T23:40:09.633Z,12.90
2022-10-20T23:42:37.349Z,7.63
2022-10-20T23:45:05.651Z,9.32
2022-10-20T23:47:33.305Z,10.40
2022-10-20T23:50:00.967Z,10.40
2022-10-20T23:52:28.752Z,9.38
2022-10-20T23:54:57.839Z,9.63
2022-10-20T23:57:25.572Z,11.10
2022-10-20T23:59:53.289Z,11.30
